sensor_id;sensor_type;location;lat;lon;timestamp;pressure;altitude;pressure_sealevel;temperature;humidity
72330;BME280;69154;52.076;5.110;2023-05-10T00:01:20;100882.43;;;17.07;30.76
72330;BME280;69154;52.076;5.110;2023-05-10T00:03:45;100881.30;;;17.81;30.41
72330;BME280;69154;52.076;5.110;2023-05-10T00:06:10;100878.99;;;17.25;30.59
72330;BME280;69154;52.076;5.110;2023-05-10T00:08:36;100875.68;;;17.59;30.49
72330;BME280;69154;52.076;5.110;2023-05-10T00:11:01;100875.03;;;16.98;30.55
72330;BME280;69154;52.076;5.110;2023-05-10T00:13:26;100872.25;;;17.52;30.75
72330;BME280;69154;52.076;5.110;2023-05-10T00:15:52;100872.27;;;16.18;30.96
72330;BME280;69154;52.076;5.110;2023-05-10T00:18:17;100876.25;;;17.57;30.60
72330;BME280;69154;52.076;5.110;2023-05-10T00:20:43;100875.43;;;17.10;31.03
72330;BME280;69154;52.076;5.110;2023-05-10T00:23:08;100874.36;;;16.68;30.92
72330;BME280;69154;52.076;5.110;2023-05-10T00:25:33;100872.81;;;17.48;30.81
72330;BME280;69154;52.076;5.110;2023-05-10T00:27:58;100874.78;;;16.69;31.60
72330;BME280;69154;52.076;5.110;2023-05-10T00:30:24;100881.50;;;15.51;33.13
72330;BME280;69154;52.076;5.110;2023-05-10T00:32:50;100878.32;;;15.60;33.62
72330;BME280;69154;52.076;5.110;2023-05-10T00:35:15;100879.13;;;14.91;34.50
72330;BME280;69154;52.076;5.110;2023-05-10T00:37:40;100875.26;;;15.98;34.14
72330;BME280;69154;52.076;5.110;2023-05-10T00:40:07;100876.67;;;15.35;34.35
72330;BME280;69154;52.076;5.110;2023-05-10T00:42:31;100878.71;;;15.52;34.62
72330;BME280;69154;52.076;5.110;2023-05-10T00:44:57;100881.46;;;15.52;34.18
72330;BME280;69154;52.076;5.110;2023-05-10T00:47:22;100885.02;;;15.89;34.15
72330;BME280;69154;52.076;5.110;2023-05-10T00:49:48;100883.61;;;17.06;32.59
72330;BME280;69154;52.076;5.110;2023-05-10T00:52:14;100882.81;;;16.28;32.63
72330;BME280;69154;52.076;5.110;2023-05-10T00:54:38;100881.51;;;17.16;31.83
72330;BME280;69154;52.076;5.110;2023-05-10T00:57:04;100882.35;;;16.22;32.22
72330;BME280;69154;52.076;5.110;2023-05-10T00:59:29;100885.21;;;17.09;31.73
72330;BME280;69154;52.076;5.110;2023-05-10T01:01:55;100885.58;;;16.11;32.03
72330;BME280;69154;52.076;5.110;2023-05-10T01:04:20;100888.61;;;16.05;33.30
72330;BME280;69154;52.076;5.110;2023-05-10T01:06:46;100888.96;;;16.34;32.98
72330;BME280;69154;52.076;5.110;2023-05-10T01:09:12;100889.46;;;15.15;34.21
72330;BME280;69154;52.076;5.110;2023-05-10T01:11:38;100884.12;;;14.16;35.17
72330;BME280;69154;52.076;5.110;2023-05-10T01:14:03;100882.58;;;13.83;35.13
72330;BME280;69154;52.076;5.110;2023-05-10T01:16:31;100882.43;;;14.96;34.75
72330;BME280;69154;52.076;5.110;2023-05-10T01:18:54;100879.91;;;14.84;34.01
72330;BME280;69154;52.076;5.110;2023-05-10T01:21:26;100886.22;;;15.65;33.41
72330;BME280;69154;52.076;5.110;2023-05-10T01:24:09;100885.85;;;15.23;34.19
72330;BME280;69154;52.076;5.110;2023-05-10T01:26:24;100885.98;;;15.32;34.14
72330;BME280;69154;52.076;5.110;2023-05-10T01:28:47;100890.17;;;15.21;33.90
72330;BME280;69154;52.076;5.110;2023-05-10T01:31:08;100887.85;;;12.72;36.18
72330;BME280;69154;52.076;5.110;2023-05-10T01:33:30;100888.86;;;13.54;35.76
72330;BME280;69154;52.076;5.110;2023-05-10T01:35:57;100890.07;;;14.33;35.09
72330;BME280;69154;52.076;5.110;2023-05-10T01:38:22;100894.78;;;15.32;33.71
72330;BME280;69154;52.076;5.110;2023-05-10T01:40:51;100887.52;;;13.84;35.38
72330;BME280;69154;52.076;5.110;2023-05-10T01:43:19;100886.21;;;14.17;35.12
72330;BME280;69154;52.076;5.110;2023-05-10T01:45:39;100893.76;;;15.89;33.56
72330;BME280;69154;52.076;5.110;2023-05-10T01:48:06;100894.12;;;13.36;34.77
72330;BME280;69154;52.076;5.110;2023-05-10T01:50:29;100897.70;;;14.58;34.43
72330;BME280;69154;52.076;5.110;2023-05-10T01:52:53;100899.94;;;15.38;32.90
72330;BME280;69154;52.076;5.110;2023-05-10T01:55:18;100900.16;;;15.83;32.82
72330;BME280;69154;52.076;5.110;2023-05-10T01:57:43;100901.85;;;15.79;32.93
72330;BME280;69154;52.076;5.110;2023-05-10T02:00:08;100903.53;;;14.98;32.97
72330;BME280;69154;52.076;5.110;2023-05-10T02:02:35;100908.15;;;14.80;34.21
72330;BME280;69154;52.076;5.110;2023-05-10T02:04:59;100910.64;;;14.02;34.55
72330;BME280;69154;52.076;5.110;2023-05-10T02:07:24;100911.03;;;14.58;34.60
72330;BME280;69154;52.076;5.110;2023-05-10T02:09:49;100913.12;;;14.70;34.45
72330;BME280;69154;52.076;5.110;2023-05-10T02:12:15;100910.48;;;14.44;34.72
72330;BME280;69154;52.076;5.110;2023-05-10T02:14:41;100913.21;;;15.46;33.69
72330;BME280;69154;52.076;5.110;2023-05-10T02:17:06;100912.43;;;13.88;34.39
72330;BME280;69154;52.076;5.110;2023-05-10T02:19:32;100912.53;;;14.99;34.43
72330;BME280;69154;52.076;5.110;2023-05-10T02:21:55;100914.98;;;14.77;33.72
72330;BME280;69154;52.076;5.110;2023-05-10T02:24:21;100917.38;;;15.14;33.62
72330;BME280;69154;52.076;5.110;2023-05-10T02:26:47;100921.24;;;16.04;33.21
72330;BME280;69154;52.076;5.110;2023-05-10T02:29:12;100923.87;;;13.54;35.19
72330;BME280;69154;52.076;5.110;2023-05-10T02:31:37;100924.09;;;14.78;34.13
72330;BME280;69154;52.076;5.110;2023-05-10T02:34:02;100927.75;;;14.94;34.14
72330;BME280;69154;52.076;5.110;2023-05-10T02:36:28;100923.00;;;13.82;35.94
72330;BME280;69154;52.076;5.110;2023-05-10T02:38:55;100925.88;;;13.48;35.72
72330;BME280;69154;52.076;5.110;2023-05-10T02:41:20;100927.71;;;13.43;35.53
72330;BME280;69154;52.076;5.110;2023-05-10T02:43:46;100927.42;;;13.73;36.21
72330;BME280;69154;52.076;5.110;2023-05-10T02:46:10;100931.37;;;14.17;35.13
72330;BME280;69154;52.076;5.110;2023-05-10T02:48:36;100931.80;;;14.35;35.31
72330;BME280;69154;52.076;5.110;2023-05-10T02:51:05;100928.41;;;14.10;34.55
72330;BME280;69154;52.076;5.110;2023-05-10T02:53:31;100932.23;;;15.33;33.79
72330;BME280;69154;52.076;5.110;2023-05-10T02:55:56;100934.35;;;14.68;34.00
72330;BME280;69154;52.076;5.110;2023-05-10T02:58:18;100934.34;;;14.87;34.35
72330;BME280;69154;52.076;5.110;2023-05-10T03:00:44;100936.56;;;15.11;34.15
72330;BME280;69154;52.076;5.110;2023-05-10T03:03:08;100937.72;;;14.89;33.96
72330;BME280;69154;52.076;5.110;2023-05-10T03:05:34;100936.80;;;14.84;34.57
72330;BME280;69154;52.076;5.110;2023-05-10T03:07:59;100937.56;;;13.32;35.67
72330;BME280;69154;52.076;5.110;2023-05-10T03:10:27;100937.06;;;13.31;36.27
72330;BME280;69154;52.076;5.110;2023-05-10T03:13:05;100933.63;;;13.44;36.14
72330;BME280;69154;52.076;5.110;2023-05-10T03:15:22;100934.38;;;12.93;36.72
72330;BME280;69154;52.076;5.110;2023-05-10T03:17:47;100932.23;;;13.24;36.99
72330;BME280;69154;52.076;5.110;2023-05-10T03:20:10;100931.88;;;13.79;35.79
72330;BME280;69154;52.076;5.110;2023-05-10T03:22:37;100931.35;;;14.87;34.63
72330;BME280;69154;52.076;5.110;2023-05-10T03:25:00;100933.29;;;14.16;35.06
72330;BME280;69154;52.076;5.110;2023-05-10T03:27:26;100937.46;;;14.38;34.98
72330;BME280;69154;52.076;5.110;2023-05-10T03:29:56;100939.57;;;13.88;35.46
72330;BME280;69154;52.076;5.110;2023-05-10T03:32:16;100940.12;;;13.91;35.71
72330;BME280;69154;52.076;5.110;2023-05-10T03:34:41;100941.43;;;14.79;34.69
72330;BME280;69154;52.076;5.110;2023-05-10T03:37:06;100941.85;;;13.56;35.15
72330;BME280;69154;52.076;5.110;2023-05-10T03:39:32;100941.28;;;14.72;34.89
72330;BME280;69154;52.076;5.110;2023-05-10T03:41:57;100941.74;;;14.11;34.70
72330;BME280;69154;52.076;5.110;2023-05-10T03:44:22;100942.59;;;14.41;34.96
72330;BME280;69154;52.076;5.110;2023-05-10T03:46:48;100943.55;;;15.09;34.00
72330;BME280;69154;52.076;5.110;2023-05-10T03:49:13;100943.21;;;14.11;34.61
72330;BME280;69154;52.076;5.110;2023-05-10T03:51:39;100945.93;;;15.63;33.16
72330;BME280;69154;52.076;5.110;2023-05-10T03:54:05;100943.94;;;15.65;32.82
72330;BME280;69154;52.076;5.110;2023-05-10T03:56:30;100946.51;;;16.82;32.21
72330;BME280;69154;52.076;5.110;2023-05-10T03:58:55;100947.17;;;15.40;32.95
72330;BME280;69154;52.076;5.110;2023-05-10T04:01:21;100948.22;;;15.49;33.24
72330;BME280;69154;52.076;5.110;2023-05-10T04:03:46;100948.69;;;15.25;33.48
72330;BME280;69154;52.076;5.110;2023-05-10T04:06:12;100948.75;;;15.74;32.68
72330;BME280;69154;52.076;5.110;2023-05-10T04:08:37;100949.79;;;15.78;32.59
72330;BME280;69154;52.076;5.110;2023-05-10T04:11:06;100947.87;;;16.26;31.67
72330;BME280;69154;52.076;5.110;2023-05-10T04:13:28;100947.97;;;16.51;31.98
72330;BME280;69154;52.076;5.110;2023-05-10T04:15:54;100948.88;;;14.97;33.40
72330;BME280;69154;52.076;5.110;2023-05-10T04:18:19;100953.51;;;15.81;32.64
72330;BME280;69154;52.076;5.110;2023-05-10T04:20:45;100947.17;;;15.34;33.30
72330;BME280;69154;52.076;5.110;2023-05-10T04:23:10;100945.58;;;14.24;34.19
72330;BME280;69154;52.076;5.110;2023-05-10T04:25:36;100948.28;;;14.69;34.25
72330;BME280;69154;52.076;5.110;2023-05-10T04:28:01;100953.26;;;14.50;33.34
72330;BME280;69154;52.076;5.110;2023-05-10T04:30:26;100958.09;;;16.11;32.81
72330;BME280;69154;52.076;5.110;2023-05-10T04:32:52;100956.95;;;14.92;33.60
72330;BME280;69154;52.076;5.110;2023-05-10T04:35:17;100960.62;;;15.51;33.15
72330;BME280;69154;52.076;5.110;2023-05-10T04:37:42;100958.86;;;16.19;32.36
72330;BME280;69154;52.076;5.110;2023-05-10T04:40:08;100958.86;;;15.60;32.13
72330;BME280;69154;52.076;5.110;2023-05-10T04:42:33;100960.15;;;14.92;33.84
72330;BME280;69154;52.076;5.110;2023-05-10T04:44:58;100957.62;;;16.15;32.60
72330;BME280;69154;52.076;5.110;2023-05-10T04:47:23;100957.39;;;15.66;32.70
72330;BME280;69154;52.076;5.110;2023-05-10T04:49:48;100958.26;;;15.79;32.70
72330;BME280;69154;52.076;5.110;2023-05-10T04:52:14;100956.87;;;15.93;32.21
72330;BME280;69154;52.076;5.110;2023-05-10T04:54:40;100961.40;;;16.26;32.20
72330;BME280;69154;52.076;5.110;2023-05-10T04:57:05;100963.49;;;15.82;32.41
72330;BME280;69154;52.076;5.110;2023-05-10T04:59:30;100968.97;;;16.49;31.88
72330;BME280;69154;52.076;5.110;2023-05-10T05:01:56;100969.94;;;16.67;31.05
72330;BME280;69154;52.076;5.110;2023-05-10T05:04:21;100974.59;;;16.61;31.47
72330;BME280;69154;52.076;5.110;2023-05-10T05:06:46;100973.11;;;16.26;31.76
72330;BME280;69154;52.076;5.110;2023-05-10T05:09:12;100973.96;;;16.31;32.04
72330;BME280;69154;52.076;5.110;2023-05-10T05:11:37;100977.56;;;17.28;31.24
72330;BME280;69154;52.076;5.110;2023-05-10T05:14:03;100983.46;;;15.54;31.88
72330;BME280;69154;52.076;5.110;2023-05-10T05:16:30;100988.39;;;15.90;32.30
72330;BME280;69154;52.076;5.110;2023-05-10T05:18:53;100986.77;;;14.48;33.43
72330;BME280;69154;52.076;5.110;2023-05-10T05:21:19;100987.30;;;15.15;33.09
72330;BME280;69154;52.076;5.110;2023-05-10T05:23:45;100994.27;;;14.90;33.61
72330;BME280;69154;52.076;5.110;2023-05-10T05:26:10;100997.78;;;15.52;32.97
72330;BME280;69154;52.076;5.110;2023-05-10T05:28:35;100995.94;;;14.78;33.71
72330;BME280;69154;52.076;5.110;2023-05-10T05:31:00;100994.45;;;14.34;33.72
72330;BME280;69154;52.076;5.110;2023-05-10T05:33:26;101001.59;;;13.71;34.81
72330;BME280;69154;52.076;5.110;2023-05-10T05:35:52;101005.21;;;11.48;37.64
72330;BME280;69154;52.076;5.110;2023-05-10T05:38:17;101008.72;;;11.77;37.75
72330;BME280;69154;52.076;5.110;2023-05-10T05:40:43;101010.02;;;12.86;37.13
72330;BME280;69154;52.076;5.110;2023-05-10T05:43:08;101016.76;;;12.00;38.31
72330;BME280;69154;52.076;5.110;2023-05-10T05:45:34;101019.09;;;12.79;37.48
72330;BME280;69154;52.076;5.110;2023-05-10T05:47:59;101019.86;;;12.27;37.02
72330;BME280;69154;52.076;5.110;2023-05-10T05:50:25;101021.65;;;14.10;35.15
72330;BME280;69154;52.076;5.110;2023-05-10T05:52:50;101025.37;;;14.04;34.64
72330;BME280;69154;52.076;5.110;2023-05-10T05:55:15;101028.53;;;13.87;34.68
72330;BME280;69154;52.076;5.110;2023-05-10T05:57:40;101028.75;;;13.49;35.22
72330;BME280;69154;52.076;5.110;2023-05-10T06:00:07;101027.05;;;13.55;34.78
72330;BME280;69154;52.076;5.110;2023-05-10T06:02:31;101023.90;;;14.84;34.24
72330;BME280;69154;52.076;5.110;2023-05-10T06:04:57;101026.60;;;14.59;33.30
72330;BME280;69154;52.076;5.110;2023-05-10T06:07:22;101029.04;;;14.98;33.03
72330;BME280;69154;52.076;5.110;2023-05-10T06:09:47;101031.66;;;14.23;33.45
72330;BME280;69154;52.076;5.110;2023-05-10T06:12:13;101033.91;;;15.17;32.81
72330;BME280;69154;52.076;5.110;2023-05-10T06:14:38;101037.37;;;14.54;33.02
72330;BME280;69154;52.076;5.110;2023-05-10T06:17:04;101037.95;;;14.74;32.83
72330;BME280;69154;52.076;5.110;2023-05-10T06:19:29;101038.49;;;15.20;32.64
72330;BME280;69154;52.076;5.110;2023-05-10T06:21:55;101038.57;;;14.34;32.98
72330;BME280;69154;52.076;5.110;2023-05-10T06:24:21;101038.62;;;14.81;32.66
72330;BME280;69154;52.076;5.110;2023-05-10T06:26:46;101044.30;;;14.58;33.50
72330;BME280;69154;52.076;5.110;2023-05-10T06:29:11;101044.92;;;15.42;32.62
72330;BME280;69154;52.076;5.110;2023-05-10T06:31:37;101044.03;;;14.14;34.18
72330;BME280;69154;52.076;5.110;2023-05-10T06:34:02;101049.83;;;14.21;33.77
72330;BME280;69154;52.076;5.110;2023-05-10T06:36:28;101050.49;;;15.81;32.51
72330;BME280;69154;52.076;5.110;2023-05-10T06:38:53;101054.14;;;16.45;30.44
72330;BME280;69154;52.076;5.110;2023-05-10T06:41:18;101051.59;;;16.08;30.93
72330;BME280;69154;52.076;5.110;2023-05-10T06:43:45;101050.49;;;16.15;30.94
72330;BME280;69154;52.076;5.110;2023-05-10T06:46:09;101051.01;;;16.79;30.67
72330;BME280;69154;52.076;5.110;2023-05-10T06:48:35;101047.47;;;17.91;29.60
72330;BME280;69154;52.076;5.110;2023-05-10T06:51:00;101049.75;;;17.65;28.56
72330;BME280;69154;52.076;5.110;2023-05-10T06:53:25;101054.09;;;18.71;28.31
72330;BME280;69154;52.076;5.110;2023-05-10T06:55:51;101055.00;;;18.84;27.41
72330;BME280;69154;52.076;5.110;2023-05-10T06:58:16;101059.67;;;18.47;28.16
72330;BME280;69154;52.076;5.110;2023-05-10T07:00:41;101058.80;;;19.68;27.17
72330;BME280;69154;52.076;5.110;2023-05-10T07:03:06;101062.19;;;18.62;26.45
72330;BME280;69154;52.076;5.110;2023-05-10T07:05:32;101062.76;;;18.39;26.95
72330;BME280;69154;52.076;5.110;2023-05-10T07:07:57;101064.03;;;17.01;27.63
72330;BME280;69154;52.076;5.110;2023-05-10T07:10:23;101068.20;;;18.89;27.55
72330;BME280;69154;52.076;5.110;2023-05-10T07:12:48;101071.17;;;17.06;28.07
72330;BME280;69154;52.076;5.110;2023-05-10T07:15:14;101074.33;;;16.37;29.29
72330;BME280;69154;52.076;5.110;2023-05-10T07:17:39;101073.22;;;18.37;27.81
72330;BME280;69154;52.076;5.110;2023-05-10T07:20:06;101074.02;;;17.92;27.46
72330;BME280;69154;52.076;5.110;2023-05-10T07:22:31;101077.10;;;18.90;27.59
72330;BME280;69154;52.076;5.110;2023-05-10T07:24:56;101078.72;;;17.70;28.00
72330;BME280;69154;52.076;5.110;2023-05-10T07:27:21;101080.12;;;17.52;28.60
72330;BME280;69154;52.076;5.110;2023-05-10T07:29:47;101086.26;;;16.93;28.94
72330;BME280;69154;52.076;5.110;2023-05-10T07:32:13;101088.15;;;17.11;28.98
72330;BME280;69154;52.076;5.110;2023-05-10T07:34:38;101092.11;;;17.85;28.77
72330;BME280;69154;52.076;5.110;2023-05-10T07:37:04;101095.98;;;15.14;30.17
72330;BME280;69154;52.076;5.110;2023-05-10T07:39:29;101096.31;;;15.57;30.81
72330;BME280;69154;52.076;5.110;2023-05-10T07:41:54;101092.73;;;15.08;31.06
72330;BME280;69154;52.076;5.110;2023-05-10T07:44:19;101095.89;;;17.85;29.77
72330;BME280;69154;52.076;5.110;2023-05-10T07:46:45;101092.87;;;18.65;28.25
72330;BME280;69154;52.076;5.110;2023-05-10T07:49:09;101097.25;;;17.45;28.35
72330;BME280;69154;52.076;5.110;2023-05-10T07:51:35;101097.08;;;17.22;28.58
72330;BME280;69154;52.076;5.110;2023-05-10T07:54:00;101098.83;;;14.97;30.53
72330;BME280;69154;52.076;5.110;2023-05-10T07:56:26;101100.61;;;17.31;29.46
72330;BME280;69154;52.076;5.110;2023-05-10T07:58:51;101098.44;;;18.32;28.50
72330;BME280;69154;52.076;5.110;2023-05-10T08:01:16;101100.51;;;16.93;29.75
72330;BME280;69154;52.076;5.110;2023-05-10T08:03:41;101097.95;;;18.32;28.29
72330;BME280;69154;52.076;5.110;2023-05-10T08:06:07;101102.54;;;18.81;27.40
72330;BME280;69154;52.076;5.110;2023-05-10T08:08:32;101104.02;;;19.28;27.10
72330;BME280;69154;52.076;5.110;2023-05-10T08:10:57;101106.24;;;18.08;26.64
72330;BME280;69154;52.076;5.110;2023-05-10T08:13:23;101108.75;;;20.01;25.84
72330;BME280;69154;52.076;5.110;2023-05-10T08:15:48;101111.16;;;19.88;26.11
72330;BME280;69154;52.076;5.110;2023-05-10T08:18:14;101113.69;;;18.14;26.49
72330;BME280;69154;52.076;5.110;2023-05-10T08:20:39;101119.07;;;19.44;26.71
72330;BME280;69154;52.076;5.110;2023-05-10T08:23:05;101123.52;;;16.33;27.31
72330;BME280;69154;52.076;5.110;2023-05-10T08:25:31;101126.87;;;15.06;30.15
72330;BME280;69154;52.076;5.110;2023-05-10T08:27:55;101132.86;;;15.43;30.32
72330;BME280;69154;52.076;5.110;2023-05-10T08:30:22;101137.62;;;16.98;29.87
72330;BME280;69154;52.076;5.110;2023-05-10T08:32:47;101141.35;;;17.86;28.98
72330;BME280;69154;52.076;5.110;2023-05-10T08:35:12;101142.50;;;18.32;28.08
72330;BME280;69154;52.076;5.110;2023-05-10T08:37:38;101144.17;;;19.42;26.94
72330;BME280;69154;52.076;5.110;2023-05-10T08:40:04;101152.31;;;17.56;27.65
72330;BME280;69154;52.076;5.110;2023-05-10T08:42:30;101152.29;;;18.95;26.85
72330;BME280;69154;52.076;5.110;2023-05-10T08:44:55;101155.38;;;19.56;26.32
72330;BME280;69154;52.076;5.110;2023-05-10T08:47:20;101154.52;;;17.42;26.85
72330;BME280;69154;52.076;5.110;2023-05-10T08:49:47;101156.32;;;19.37;26.66
72330;BME280;69154;52.076;5.110;2023-05-10T08:52:11;101161.32;;;17.31;27.03
72330;BME280;69154;52.076;5.110;2023-05-10T08:54:36;101162.20;;;19.33;26.78
72330;BME280;69154;52.076;5.110;2023-05-10T08:57:01;101161.44;;;18.91;25.96
72330;BME280;69154;52.076;5.110;2023-05-10T08:59:26;101162.22;;;18.99;26.23
72330;BME280;69154;52.076;5.110;2023-05-10T09:01:51;101159.98;;;19.70;26.24
72330;BME280;69154;52.076;5.110;2023-05-10T09:04:16;101158.25;;;20.59;25.73
72330;BME280;69154;52.076;5.110;2023-05-10T09:06:42;101159.57;;;21.22;23.95
72330;BME280;69154;52.076;5.110;2023-05-10T09:09:08;101161.41;;;19.81;24.54
72330;BME280;69154;52.076;5.110;2023-05-10T09:11:34;101161.31;;;21.17;24.75
72330;BME280;69154;52.076;5.110;2023-05-10T09:13:59;101166.69;;;21.99;23.06
72330;BME280;69154;52.076;5.110;2023-05-10T09:16:25;101168.85;;;22.82;23.68
72330;BME280;69154;52.076;5.110;2023-05-10T09:18:50;101169.89;;;22.87;22.52
72330;BME280;69154;52.076;5.110;2023-05-10T09:21:16;101170.27;;;22.69;23.01
72330;BME280;69154;52.076;5.110;2023-05-10T09:23:43;101171.77;;;23.44;21.77
72330;BME280;69154;52.076;5.110;2023-05-10T09:26:07;101171.05;;;23.09;22.64
72330;BME280;69154;52.076;5.110;2023-05-10T09:28:34;101170.71;;;23.30;22.05
72330;BME280;69154;52.076;5.110;2023-05-10T09:30:59;101170.81;;;23.41;21.74
72330;BME280;69154;52.076;5.110;2023-05-10T09:33:25;101171.73;;;22.96;22.56
72330;BME280;69154;52.076;5.110;2023-05-10T09:35:52;101171.80;;;23.19;21.96
72330;BME280;69154;52.076;5.110;2023-05-10T09:38:16;101179.82;;;22.30;21.81
72330;BME280;69154;52.076;5.110;2023-05-10T09:40:51;101179.78;;;21.23;22.90
72330;BME280;69154;52.076;5.110;2023-05-10T09:43:08;101181.06;;;20.45;23.10
72330;BME280;69154;52.076;5.110;2023-05-10T09:45:35;101181.56;;;21.56;24.05
72330;BME280;69154;52.076;5.110;2023-05-10T09:48:01;101183.49;;;20.31;23.98
72330;BME280;69154;52.076;5.110;2023-05-10T09:50:26;101187.14;;;20.17;24.73
72330;BME280;69154;52.076;5.110;2023-05-10T09:52:52;101193.30;;;17.10;26.95
72330;BME280;69154;52.076;5.110;2023-05-10T09:55:19;101191.88;;;18.04;27.63
72330;BME280;69154;52.076;5.110;2023-05-10T09:57:43;101193.24;;;17.49;28.41
72330;BME280;69154;52.076;5.110;2023-05-10T10:00:09;101197.80;;;17.35;28.82
72330;BME280;69154;52.076;5.110;2023-05-10T10:02:33;101196.24;;;18.45;28.46
72330;BME280;69154;52.076;5.110;2023-05-10T10:05:01;101196.72;;;18.59;27.53
72330;BME280;69154;52.076;5.110;2023-05-10T10:07:25;101202.40;;;18.50;27.90
72330;BME280;69154;52.076;5.110;2023-05-10T10:09:50;101201.81;;;18.46;27.53
72330;BME280;69154;52.076;5.110;2023-05-10T10:12:15;101202.14;;;18.60;27.01
72330;BME280;69154;52.076;5.110;2023-05-10T10:14:40;101204.11;;;21.01;26.07
72330;BME280;69154;52.076;5.110;2023-05-10T10:17:05;101208.22;;;20.05;24.43
72330;BME280;69154;52.076;5.110;2023-05-10T10:19:33;101207.76;;;20.63;24.80
72330;BME280;69154;52.076;5.110;2023-05-10T10:21:58;101207.91;;;19.25;25.16
72330;BME280;69154;52.076;5.110;2023-05-10T10:24:22;101212.29;;;18.75;26.41
72330;BME280;69154;52.076;5.110;2023-05-10T10:26:49;101213.72;;;21.27;25.37
72330;BME280;69154;52.076;5.110;2023-05-10T10:29:21;101212.51;;;20.72;25.26
72330;BME280;69154;52.076;5.110;2023-05-10T10:31:44;101217.59;;;22.29;24.87
72330;BME280;69154;52.076;5.110;2023-05-10T10:34:06;101215.83;;;22.90;23.98
72330;BME280;69154;52.076;5.110;2023-05-10T10:36:31;101211.95;;;23.17;22.50
72330;BME280;69154;52.076;5.110;2023-05-10T10:38:58;101208.27;;;20.66;24.68
72330;BME280;69154;52.076;5.110;2023-05-10T10:41:29;101215.70;;;23.36;23.18
72330;BME280;69154;52.076;5.110;2023-05-10T10:43:48;101213.08;;;22.72;23.32
72330;BME280;69154;52.076;5.110;2023-05-10T10:46:15;101212.81;;;24.12;22.77
72330;BME280;69154;52.076;5.110;2023-05-10T10:48:40;101210.20;;;25.50;22.13
72330;BME280;69154;52.076;5.110;2023-05-10T10:51:05;101210.31;;;25.13;19.77
72330;BME280;69154;52.076;5.110;2023-05-10T10:53:31;101213.45;;;24.59;20.56
72330;BME280;69154;52.076;5.110;2023-05-10T10:56:13;101210.94;;;25.06;21.53
72330;BME280;69154;52.076;5.110;2023-05-10T10:58:30;101205.75;;;24.77;19.45
72330;BME280;69154;52.076;5.110;2023-05-10T11:00:47;101205.30;;;26.40;20.36
72330;BME280;69154;52.076;5.110;2023-05-10T11:03:13;101206.03;;;25.16;19.74
72330;BME280;69154;52.076;5.110;2023-05-10T11:05:41;101209.55;;;26.06;19.58
72330;BME280;69154;52.076;5.110;2023-05-10T11:08:12;101206.04;;;24.52;20.18
72330;BME280;69154;52.076;5.110;2023-05-10T11:10:29;101208.37;;;23.49;21.30
72330;BME280;69154;52.076;5.110;2023-05-10T11:13:00;101210.43;;;23.50;21.34
72330;BME280;69154;52.076;5.110;2023-05-10T11:15:28;101212.42;;;24.21;21.73
72330;BME280;69154;52.076;5.110;2023-05-10T11:17:48;101214.84;;;23.36;21.86
72330;BME280;69154;52.076;5.110;2023-05-10T11:20:14;101213.90;;;22.98;21.25
72330;BME280;69154;52.076;5.110;2023-05-10T11:22:54;101213.32;;;23.68;21.70
72330;BME280;69154;52.076;5.110;2023-05-10T11:25:06;101212.80;;;22.23;21.31
72330;BME280;69154;52.076;5.110;2023-05-10T11:27:29;101216.18;;;23.43;21.97
72330;BME280;69154;52.076;5.110;2023-05-10T11:29:55;101212.43;;;23.31;21.31
72330;BME280;69154;52.076;5.110;2023-05-10T11:32:21;101220.93;;;22.34;22.62
72330;BME280;69154;52.076;5.110;2023-05-10T11:34:47;101219.56;;;23.19;22.50
72330;BME280;69154;52.076;5.110;2023-05-10T11:37:12;101218.65;;;22.49;21.32
72330;BME280;69154;52.076;5.110;2023-05-10T11:39:38;101219.76;;;23.62;21.42
72330;BME280;69154;52.076;5.110;2023-05-10T11:42:03;101218.11;;;22.70;21.78
72330;BME280;69154;52.076;5.110;2023-05-10T11:44:30;101219.76;;;24.34;21.19
72330;BME280;69154;52.076;5.110;2023-05-10T11:46:58;101217.77;;;24.10;21.04
72330;BME280;69154;52.076;5.110;2023-05-10T11:49:23;101222.43;;;25.35;20.43
72330;BME280;69154;52.076;5.110;2023-05-10T11:51:46;101222.95;;;24.51;20.55
72330;BME280;69154;52.076;5.110;2023-05-10T11:54:12;101227.60;;;22.31;22.19
72330;BME280;69154;52.076;5.110;2023-05-10T11:56:39;101224.10;;;21.21;24.19
72330;BME280;69154;52.076;5.110;2023-05-10T11:59:06;101223.64;;;20.84;25.11
72330;BME280;69154;52.076;5.110;2023-05-10T12:01:30;101224.31;;;20.77;24.68
72330;BME280;69154;52.076;5.110;2023-05-10T12:03:57;101228.77;;;21.85;24.55
72330;BME280;69154;52.076;5.110;2023-05-10T12:06:22;101231.40;;;21.02;24.61
72330;BME280;69154;52.076;5.110;2023-05-10T12:08:48;101231.22;;;21.09;24.71
72330;BME280;69154;52.076;5.110;2023-05-10T12:11:13;101232.07;;;21.15;25.04
72330;BME280;69154;52.076;5.110;2023-05-10T12:13:39;101239.40;;;20.09;25.86
72330;BME280;69154;52.076;5.110;2023-05-10T12:16:12;101234.55;;;19.48;25.91
72330;BME280;69154;52.076;5.110;2023-05-10T12:18:29;101235.43;;;19.88;26.56
72330;BME280;69154;52.076;5.110;2023-05-10T12:21:03;101232.12;;;19.17;26.94
72330;BME280;69154;52.076;5.110;2023-05-10T12:23:21;101239.68;;;18.58;27.78
72330;BME280;69154;52.076;5.110;2023-05-10T12:25:46;101246.48;;;17.90;28.92
72330;BME280;69154;52.076;5.110;2023-05-10T12:28:12;101255.62;;;15.31;32.74
72330;BME280;69154;52.076;5.110;2023-05-10T12:30:38;101258.95;;;14.97;34.27
72330;BME280;69154;52.076;5.110;2023-05-10T12:33:07;101264.77;;;14.04;35.21
72330;BME280;69154;52.076;5.110;2023-05-10T12:35:31;101270.27;;;13.68;36.79
72330;BME280;69154;52.076;5.110;2023-05-10T12:37:53;101274.69;;;12.22;38.14
72330;BME280;69154;52.076;5.110;2023-05-10T12:40:18;101276.88;;;13.17;38.33